Grandview, OR

7:17 PM PDT on March 26, 2017 (GMT -0700)
3 Rivers North | | Change Station

Elev 2451 ft 44.58 °N, 121.35 °W | Updated 1 day ago

Overcast
Overcast
40.9 °F
Feels Like 37 °F
N
6.0
Wind Variable Wind from SW
Gusts 0.0 mph

Today
High -- | Low -- °F
--% Chance of Precip.
Yesterday
High -- | Low -- °F
Precip. -- in
Pressure 29.78 in
Visibility 10.0 miles
Clouds Mostly Cloudy 7000 ft
Overcast 8500 ft
Windchill 37 °F
Dew Point 21 °F
Humidity 45%
Rainfall 0.11 in
Snow Depth Not available.
6:56 AM 7:25 PM
Waning Crescent, 1% visible
METAR KRDM 270156Z AUTO 20013KT 10SM BKN070 OVC085 09/02 A2977 RMK AO2 SLP083 T00940017
Pressure 29.78 in
Visibility 10.0 miles
Clouds Mostly Cloudy 7000 ft
Overcast 8500 ft
Windchill 37 °F
Dew Point 21 °F
Humidity 45%
Rainfall 0.11 in
Snow Depth Not available.
6:56 AM 7:25 PM
Waning Crescent, 1% visible
METAR KRDM 270156Z AUTO 20013KT 10SM BKN070 OVC085 09/02 A2977 RMK AO2 SLP083 T00940017

Get Severe Weather Alerts

Thanks for signing up!

Be on the lookout for a verification email in your inbox.

You'll start receiving the daily forecast at 8 AM.

×

10-Day Weather Forecast

Almanac

Astronomy

Mar. 26, 2017 Rise Set
Actual Time
Civil Twilight
Nautical Twilight
Astronomical Twilight
Moon
Length of Visible Light
Length of Day
Tomorrow will be .
, % of the Moon is Illuminated

Today's Extremes

State Highs State Lows

Community

WunderPhotos

Upload Photos

1,962,540 photos uploaded!

WunderBlog® & News

Nearby

Air Quality

  Air Quality AQ Index Pollutant
Not available.

Snow Depth

Station Depth Elevation

Earthquake Activity

City Distance Mag. Time & Date
Minimum magnitude displayed is 2.5.

Earthquake Activity

City Distance Mag. Time & Date
Minimum magnitude displayed is 2.5.

Coastal Water Temperatures

Place Temperature

Stations

Nearby Weather Stations

Station Location Temp. Windchill Dew Point Humidity Wind Precip. Elev Updated Type
                   

Watches & Warnings

There are currently no watches in effect.